Raceland, Louisiana
Current Conditions -  °F | °C
As of 10:15 AM on Tuesday 21 Oct 2014 (Local Time) from K1L0 Reporting Station
Clear Clear  
Wind Chill: 74°   Ceiling: Unl
Heat Index: 74°   Visibility: 10mi
Dew Point: 55°   Wind: 6mph
Humidity: 52%   Direction: 70°ENE
Pressure: 30.07"   Gusts: NA
Location:  29.73°N, 90.61°W
Report Text: K1L0 211515Z AUTO 07005KT 10SM CLR 23/13 A3007 RMK AO2 T02310128
Loading
Personal Weather Stations






























Interactive Weather Map
Tropical Storm Tracking
New forecast layout! Learn more

10-Day Weather Forecast

Advertisements
Track Severe Weather on mobile